sensor_id;sensor_type;location;lat;lon;timestamp;P1;durP1;ratioP1;P2;durP2;ratioP2
13477;SDS011;12598;62.382;17.344;2024-02-23T00:00:45;1.23;;;1.00;;
13477;SDS011;12598;62.382;17.344;2024-02-23T00:01:47;1.40;;;0.68;;
13477;SDS011;12598;62.382;17.344;2024-02-23T00:02:49;1.10;;;1.00;;
13477;SDS011;12598;62.382;17.344;2024-02-23T00:03:51;0.63;;;0.63;;
13477;SDS011;12598;62.382;17.344;2024-02-23T00:04:53;1.20;;;0.98;;
13477;SDS011;12598;62.382;17.344;2024-02-23T00:05:55;1.48;;;0.80;;
13477;SDS011;12598;62.382;17.344;2024-02-23T00:06:57;1.02;;;0.93;;
13477;SDS011;12598;62.382;17.344;2024-02-23T00:07:58;0.88;;;0.77;;
13477;SDS011;12598;62.382;17.344;2024-02-23T00:09:00;1.13;;;0.88;;
13477;SDS011;12598;62.382;17.344;2024-02-23T00:10:02;1.52;;;1.10;;
13477;SDS011;12598;62.382;17.344;2024-02-23T00:11:04;1.35;;;0.73;;
13477;SDS011;12598;62.382;17.344;2024-02-23T00:12:07;1.25;;;0.90;;
13477;SDS011;12598;62.382;17.344;2024-02-23T00:13:12;1.02;;;0.80;;
13477;SDS011;12598;62.382;17.344;2024-02-23T00:14:15;1.35;;;1.05;;
13477;SDS011;12598;62.382;17.344;2024-02-23T00:15:20;1.40;;;1.17;;
13477;SDS011;12598;62.382;17.344;2024-02-23T00:16:21;1.38;;;0.90;;
13477;SDS011;12598;62.382;17.344;2024-02-23T00:17:23;1.30;;;1.00;;
13477;SDS011;12598;62.382;17.344;2024-02-23T00:18:25;1.80;;;1.10;;
13477;SDS011;12598;62.382;17.344;2024-02-23T00:19:27;1.80;;;0.77;;
13477;SDS011;12598;62.382;17.344;2024-02-23T00:20:29;1.40;;;0.90;;
13477;SDS011;12598;62.382;17.344;2024-02-23T00:21:31;1.20;;;0.82;;
13477;SDS011;12598;62.382;17.344;2024-02-23T00:22:33;1.80;;;1.08;;
13477;SDS011;12598;62.382;17.344;2024-02-23T00:23:35;1.30;;;1.00;;
13477;SDS011;12598;62.382;17.344;2024-02-23T00:24:37;1.75;;;1.23;;
13477;SDS011;12598;62.382;17.344;2024-02-23T00:25:39;1.85;;;0.90;;
13477;SDS011;12598;62.382;17.344;2024-02-23T00:26:41;1.02;;;0.93;;
13477;SDS011;12598;62.382;17.344;2024-02-23T00:27:43;1.20;;;1.00;;
13477;SDS011;12598;62.382;17.344;2024-02-23T00:28:45;1.13;;;0.98;;
13477;SDS011;12598;62.382;17.344;2024-02-23T00:29:47;2.00;;;1.13;;
13477;SDS011;12598;62.382;17.344;2024-02-23T00:30:49;1.38;;;0.90;;
13477;SDS011;12598;62.382;17.344;2024-02-23T00:31:51;1.63;;;1.27;;
13477;SDS011;12598;62.382;17.344;2024-02-23T00:32:52;1.52;;;1.10;;
13477;SDS011;12598;62.382;17.344;2024-02-23T00:33:54;1.63;;;1.17;;
13477;SDS011;12598;62.382;17.344;2024-02-23T00:34:56;1.00;;;0.82;;
13477;SDS011;12598;62.382;17.344;2024-02-23T00:35:58;1.80;;;1.00;;
13477;SDS011;12598;62.382;17.344;2024-02-23T00:37:00;1.50;;;0.95;;
13477;SDS011;12598;62.382;17.344;2024-02-23T00:38:02;1.92;;;0.80;;
13477;SDS011;12598;62.382;17.344;2024-02-23T00:39:04;2.05;;;0.90;;
13477;SDS011;12598;62.382;17.344;2024-02-23T00:40:06;1.55;;;0.90;;
13477;SDS011;12598;62.382;17.344;2024-02-23T00:41:08;1.55;;;1.00;;
13477;SDS011;12598;62.382;17.344;2024-02-23T00:42:10;1.50;;;0.70;;
13477;SDS011;12598;62.382;17.344;2024-02-23T00:43:12;1.13;;;0.90;;
13477;SDS011;12598;62.382;17.344;2024-02-23T00:44:14;1.48;;;0.80;;
13477;SDS011;12598;62.382;17.344;2024-02-23T00:45:15;1.13;;;0.90;;
13477;SDS011;12598;62.382;17.344;2024-02-23T00:46:17;0.88;;;0.70;;
13477;SDS011;12598;62.382;17.344;2024-02-23T00:47:19;0.73;;;0.70;;
13477;SDS011;12598;62.382;17.344;2024-02-23T00:48:21;1.38;;;1.00;;
13477;SDS011;12598;62.382;17.344;2024-02-23T00:49:23;1.42;;;1.00;;
13477;SDS011;12598;62.382;17.344;2024-02-23T00:50:25;1.05;;;0.70;;
13477;SDS011;12598;62.382;17.344;2024-02-23T00:51:30;1.63;;;0.80;;
13477;SDS011;12598;62.382;17.344;2024-02-23T00:52:32;0.98;;;0.75;;
13477;SDS011;12598;62.382;17.344;2024-02-23T00:53:33;1.27;;;0.80;;
13477;SDS011;12598;62.382;17.344;2024-02-23T00:54:35;1.42;;;0.68;;
13477;SDS011;12598;62.382;17.344;2024-02-23T00:55:37;0.90;;;0.70;;
13477;SDS011;12598;62.382;17.344;2024-02-23T00:56:39;1.55;;;1.02;;
13477;SDS011;12598;62.382;17.344;2024-02-23T00:57:52;1.73;;;0.95;;
13477;SDS011;12598;62.382;17.344;2024-02-23T00:58:53;1.27;;;0.93;;
13477;SDS011;12598;62.382;17.344;2024-02-23T00:59:56;1.02;;;0.90;;
13477;SDS011;12598;62.382;17.344;2024-02-23T01:00:59;0.80;;;0.70;;
13477;SDS011;12598;62.382;17.344;2024-02-23T01:02:01;1.13;;;0.88;;
13477;SDS011;12598;62.382;17.344;2024-02-23T01:03:03;1.52;;;0.90;;
13477;SDS011;12598;62.382;17.344;2024-02-23T01:04:05;1.17;;;0.80;;
13477;SDS011;12598;62.382;17.344;2024-02-23T01:05:07;1.35;;;0.95;;
13477;SDS011;12598;62.382;17.344;2024-02-23T01:06:10;1.10;;;0.88;;
13477;SDS011;12598;62.382;17.344;2024-02-23T01:07:12;1.23;;;1.02;;
13477;SDS011;12598;62.382;17.344;2024-02-23T01:08:14;1.08;;;0.90;;
13477;SDS011;12598;62.382;17.344;2024-02-23T01:09:16;1.20;;;0.90;;
13477;SDS011;12598;62.382;17.344;2024-02-23T01:10:22;1.83;;;1.00;;
13477;SDS011;12598;62.382;17.344;2024-02-23T01:11:23;1.17;;;1.00;;
13477;SDS011;12598;62.382;17.344;2024-02-23T01:12:25;0.95;;;0.85;;
13477;SDS011;12598;62.382;17.344;2024-02-23T01:13:27;0.70;;;0.70;;
13477;SDS011;12598;62.382;17.344;2024-02-23T01:14:29;1.30;;;1.17;;
13477;SDS011;12598;62.382;17.344;2024-02-23T01:15:31;1.13;;;0.75;;
13477;SDS011;12598;62.382;17.344;2024-02-23T01:16:33;1.70;;;1.00;;
13477;SDS011;12598;62.382;17.344;2024-02-23T01:17:34;1.50;;;0.90;;
13477;SDS011;12598;62.382;17.344;2024-02-23T01:18:36;1.63;;;0.90;;
13477;SDS011;12598;62.382;17.344;2024-02-23T01:19:38;1.50;;;0.80;;
13477;SDS011;12598;62.382;17.344;2024-02-23T01:20:40;1.67;;;1.00;;
13477;SDS011;12598;62.382;17.344;2024-02-23T01:21:42;0.90;;;0.70;;
13477;SDS011;12598;62.382;17.344;2024-02-23T01:22:44;1.40;;;0.95;;
13477;SDS011;12598;62.382;17.344;2024-02-23T01:23:45;1.65;;;1.02;;
13477;SDS011;12598;62.382;17.344;2024-02-23T01:24:47;1.33;;;0.80;;
13477;SDS011;12598;62.382;17.344;2024-02-23T01:25:49;2.15;;;0.95;;
13477;SDS011;12598;62.382;17.344;2024-02-23T01:26:51;2.15;;;0.93;;
13477;SDS011;12598;62.382;17.344;2024-02-23T01:27:53;1.42;;;0.90;;
13477;SDS011;12598;62.382;17.344;2024-02-23T01:28:54;1.30;;;0.90;;
13477;SDS011;12598;62.382;17.344;2024-02-23T01:29:56;1.85;;;1.20;;
13477;SDS011;12598;62.382;17.344;2024-02-23T01:30:58;1.00;;;0.73;;
13477;SDS011;12598;62.382;17.344;2024-02-23T01:32:00;1.25;;;0.90;;
13477;SDS011;12598;62.382;17.344;2024-02-23T01:33:02;1.10;;;0.82;;
13477;SDS011;12598;62.382;17.344;2024-02-23T01:34:04;1.70;;;0.70;;
13477;SDS011;12598;62.382;17.344;2024-02-23T01:35:07;1.67;;;1.02;;
13477;SDS011;12598;62.382;17.344;2024-02-23T01:36:09;1.25;;;1.05;;
13477;SDS011;12598;62.382;17.344;2024-02-23T01:37:11;1.17;;;0.68;;
13477;SDS011;12598;62.382;17.344;2024-02-23T01:38:13;1.20;;;0.93;;
13477;SDS011;12598;62.382;17.344;2024-02-23T01:39:21;1.50;;;0.90;;
13477;SDS011;12598;62.382;17.344;2024-02-23T01:40:23;1.33;;;0.80;;
13477;SDS011;12598;62.382;17.344;2024-02-23T01:41:25;0.68;;;0.60;;
13477;SDS011;12598;62.382;17.344;2024-02-23T01:42:27;1.00;;;0.80;;
13477;SDS011;12598;62.382;17.344;2024-02-23T01:43:29;1.05;;;0.93;;
13477;SDS011;12598;62.382;17.344;2024-02-23T01:44:31;1.30;;;0.60;;
13477;SDS011;12598;62.382;17.344;2024-02-23T01:45:33;0.80;;;0.70;;
13477;SDS011;12598;62.382;17.344;2024-02-23T01:46:35;1.05;;;0.60;;
13477;SDS011;12598;62.382;17.344;2024-02-23T01:47:37;0.93;;;0.65;;
13477;SDS011;12598;62.382;17.344;2024-02-23T01:48:40;1.10;;;0.70;;
13477;SDS011;12598;62.382;17.344;2024-02-23T01:49:42;1.15;;;0.80;;
13477;SDS011;12598;62.382;17.344;2024-02-23T01:50:44;0.65;;;0.60;;
13477;SDS011;12598;62.382;17.344;2024-02-23T01:51:46;0.65;;;0.60;;
13477;SDS011;12598;62.382;17.344;2024-02-23T01:52:48;0.82;;;0.60;;
13477;SDS011;12598;62.382;17.344;2024-02-23T01:53:53;1.20;;;0.50;;
13477;SDS011;12598;62.382;17.344;2024-02-23T01:54:55;1.00;;;0.63;;
13477;SDS011;12598;62.382;17.344;2024-02-23T01:55:58;0.80;;;0.47;;
13477;SDS011;12598;62.382;17.344;2024-02-23T01:57:01;1.67;;;0.88;;
13477;SDS011;12598;62.382;17.344;2024-02-23T01:58:23;0.63;;;0.55;;
13477;SDS011;12598;62.382;17.344;2024-02-23T01:59:26;0.68;;;0.60;;
13477;SDS011;12598;62.382;17.344;2024-02-23T02:00:29;0.88;;;0.50;;
13477;SDS011;12598;62.382;17.344;2024-02-23T02:01:31;0.68;;;0.50;;
13477;SDS011;12598;62.382;17.344;2024-02-23T02:02:33;1.38;;;0.70;;
13477;SDS011;12598;62.382;17.344;2024-02-23T02:03:35;0.80;;;0.65;;
13477;SDS011;12598;62.382;17.344;2024-02-23T02:04:39;0.70;;;0.70;;
13477;SDS011;12598;62.382;17.344;2024-02-23T02:05:41;1.20;;;0.60;;
13477;SDS011;12598;62.382;17.344;2024-02-23T02:06:44;1.38;;;0.50;;
13477;SDS011;12598;62.382;17.344;2024-02-23T02:07:49;0.73;;;0.40;;
13477;SDS011;12598;62.382;17.344;2024-02-23T02:08:55;0.70;;;0.40;;
13477;SDS011;12598;62.382;17.344;2024-02-23T02:09:57;0.88;;;0.70;;
13477;SDS011;12598;62.382;17.344;2024-02-23T02:10:59;0.82;;;0.65;;
13477;SDS011;12598;62.382;17.344;2024-02-23T02:12:01;0.70;;;0.50;;
13477;SDS011;12598;62.382;17.344;2024-02-23T02:13:03;0.75;;;0.60;;
13477;SDS011;12598;62.382;17.344;2024-02-23T02:14:06;0.82;;;0.55;;
13477;SDS011;12598;62.382;17.344;2024-02-23T02:15:07;1.02;;;0.57;;
13477;SDS011;12598;62.382;17.344;2024-02-23T02:16:09;0.57;;;0.57;;
13477;SDS011;12598;62.382;17.344;2024-02-23T02:17:12;1.08;;;0.70;;
13477;SDS011;12598;62.382;17.344;2024-02-23T02:18:14;1.40;;;0.80;;
13477;SDS011;12598;62.382;17.344;2024-02-23T02:19:16;1.17;;;0.50;;
13477;SDS011;12598;62.382;17.344;2024-02-23T02:20:18;1.30;;;0.60;;
13477;SDS011;12598;62.382;17.344;2024-02-23T02:21:24;0.80;;;0.57;;
13477;SDS011;12598;62.382;17.344;2024-02-23T02:22:26;0.43;;;0.43;;
13477;SDS011;12598;62.382;17.344;2024-02-23T02:23:28;0.63;;;0.52;;
13477;SDS011;12598;62.382;17.344;2024-02-23T02:24:30;1.15;;;0.60;;
13477;SDS011;12598;62.382;17.344;2024-02-23T02:25:33;0.70;;;0.55;;
13477;SDS011;12598;62.382;17.344;2024-02-23T02:26:34;1.40;;;0.70;;
13477;SDS011;12598;62.382;17.344;2024-02-23T02:27:38;0.73;;;0.73;;
13477;SDS011;12598;62.382;17.344;2024-02-23T02:28:40;0.50;;;0.50;;
13477;SDS011;12598;62.382;17.344;2024-02-23T02:29:41;1.38;;;0.73;;
13477;SDS011;12598;62.382;17.344;2024-02-23T02:30:43;0.90;;;0.60;;
13477;SDS011;12598;62.382;17.344;2024-02-23T02:31:45;1.05;;;0.70;;
13477;SDS011;12598;62.382;17.344;2024-02-23T02:32:47;1.02;;;0.80;;
13477;SDS011;12598;62.382;17.344;2024-02-23T02:33:49;0.50;;;0.50;;
13477;SDS011;12598;62.382;17.344;2024-02-23T02:34:51;0.77;;;0.52;;
13477;SDS011;12598;62.382;17.344;2024-02-23T02:35:52;0.95;;;0.55;;
13477;SDS011;12598;62.382;17.344;2024-02-23T02:36:54;1.23;;;0.98;;
13477;SDS011;12598;62.382;17.344;2024-02-23T02:37:56;0.85;;;0.60;;
13477;SDS011;12598;62.382;17.344;2024-02-23T02:38:58;1.30;;;0.65;;
13477;SDS011;12598;62.382;17.344;2024-02-23T02:40:00;0.95;;;0.70;;
13477;SDS011;12598;62.382;17.344;2024-02-23T02:41:02;1.02;;;0.70;;
13477;SDS011;12598;62.382;17.344;2024-02-23T02:42:04;0.80;;;0.63;;
13477;SDS011;12598;62.382;17.344;2024-02-23T02:43:07;1.10;;;0.75;;
13477;SDS011;12598;62.382;17.344;2024-02-23T02:44:09;1.67;;;0.82;;
13477;SDS011;12598;62.382;17.344;2024-02-23T02:45:11;1.05;;;0.73;;
13477;SDS011;12598;62.382;17.344;2024-02-23T02:46:13;1.10;;;0.73;;
13477;SDS011;12598;62.382;17.344;2024-02-23T02:47:15;1.48;;;0.70;;
13477;SDS011;12598;62.382;17.344;2024-02-23T02:48:19;1.00;;;0.80;;
13477;SDS011;12598;62.382;17.344;2024-02-23T02:49:21;1.60;;;1.10;;
13477;SDS011;12598;62.382;17.344;2024-02-23T02:50:22;1.77;;;0.90;;
13477;SDS011;12598;62.382;17.344;2024-02-23T02:51:24;1.23;;;0.80;;
13477;SDS011;12598;62.382;17.344;2024-02-23T02:52:26;1.98;;;1.10;;
13477;SDS011;12598;62.382;17.344;2024-02-23T02:53:29;3.00;;;1.15;;
13477;SDS011;12598;62.382;17.344;2024-02-23T02:54:32;1.45;;;1.15;;
13477;SDS011;12598;62.382;17.344;2024-02-23T02:55:33;1.58;;;1.20;;
13477;SDS011;12598;62.382;17.344;2024-02-23T02:56:35;1.42;;;1.23;;
13477;SDS011;12598;62.382;17.344;2024-02-23T02:57:37;1.63;;;1.27;;
13477;SDS011;12598;62.382;17.344;2024-02-23T02:58:39;2.10;;;1.30;;
13477;SDS011;12598;62.382;17.344;2024-02-23T02:59:41;2.13;;;1.38;;
13477;SDS011;12598;62.382;17.344;2024-02-23T03:00:42;1.60;;;1.50;;
13477;SDS011;12598;62.382;17.344;2024-02-23T03:01:44;1.38;;;1.25;;
13477;SDS011;12598;62.382;17.344;2024-02-23T03:02:48;2.05;;;1.70;;
13477;SDS011;12598;62.382;17.344;2024-02-23T03:03:50;1.77;;;1.40;;
13477;SDS011;12598;62.382;17.344;2024-02-23T03:04:52;1.80;;;1.20;;
13477;SDS011;12598;62.382;17.344;2024-02-23T03:05:56;2.47;;;1.45;;
13477;SDS011;12598;62.382;17.344;2024-02-23T03:06:58;2.00;;;1.60;;
13477;SDS011;12598;62.382;17.344;2024-02-23T03:08:00;1.88;;;1.30;;
13477;SDS011;12598;62.382;17.344;2024-02-23T03:09:02;2.78;;;1.60;;
13477;SDS011;12598;62.382;17.344;2024-02-23T03:10:04;2.30;;;1.63;;
13477;SDS011;12598;62.382;17.344;2024-02-23T03:11:06;1.40;;;1.30;;
13477;SDS011;12598;62.382;17.344;2024-02-23T03:12:08;1.48;;;1.02;;
13477;SDS011;12598;62.382;17.344;2024-02-23T03:13:11;2.75;;;1.60;;
13477;SDS011;12598;62.382;17.344;2024-02-23T03:14:13;1.92;;;1.55;;
13477;SDS011;12598;62.382;17.344;2024-02-23T03:15:15;2.08;;;1.50;;
13477;SDS011;12598;62.382;17.344;2024-02-23T03:16:18;1.60;;;1.23;;
13477;SDS011;12598;62.382;17.344;2024-02-23T03:17:20;1.98;;;1.58;;
13477;SDS011;12598;62.382;17.344;2024-02-23T03:18:22;1.92;;;1.30;;
13477;SDS011;12598;62.382;17.344;2024-02-23T03:19:23;2.60;;;1.48;;
13477;SDS011;12598;62.382;17.344;2024-02-23T03:20:27;2.42;;;1.73;;
13477;SDS011;12598;62.382;17.344;2024-02-23T03:21:29;1.88;;;1.55;;
13477;SDS011;12598;62.382;17.344;2024-02-23T03:22:31;2.58;;;1.50;;
13477;SDS011;12598;62.382;17.344;2024-02-23T03:23:33;2.03;;;1.48;;
13477;SDS011;12598;62.382;17.344;2024-02-23T03:24:35;3.90;;;1.90;;
13477;SDS011;12598;62.382;17.344;2024-02-23T03:25:37;2.50;;;1.50;;
13477;SDS011;12598;62.382;17.344;2024-02-23T03:26:39;2.05;;;1.40;;
13477;SDS011;12598;62.382;17.344;2024-02-23T03:27:41;2.20;;;1.63;;
13477;SDS011;12598;62.382;17.344;2024-02-23T03:28:43;1.58;;;1.40;;
13477;SDS011;12598;62.382;17.344;2024-02-23T03:29:45;1.95;;;1.40;;
13477;SDS011;12598;62.382;17.344;2024-02-23T03:30:46;2.72;;;1.80;;
13477;SDS011;12598;62.382;17.344;2024-02-23T03:31:48;2.42;;;1.73;;
13477;SDS011;12598;62.382;17.344;2024-02-23T03:32:50;2.17;;;1.60;;
13477;SDS011;12598;62.382;17.344;2024-02-23T03:33:52;2.33;;;1.30;;
13477;SDS011;12598;62.382;17.344;2024-02-23T03:34:54;2.40;;;1.75;;
13477;SDS011;12598;62.382;17.344;2024-02-23T03:35:57;2.38;;;1.60;;
13477;SDS011;12598;62.382;17.344;2024-02-23T03:36:59;2.55;;;1.70;;
13477;SDS011;12598;62.382;17.344;2024-02-23T03:38:03;3.17;;;2.13;;
13477;SDS011;12598;62.382;17.344;2024-02-23T03:39:05;3.03;;;1.80;;
13477;SDS011;12598;62.382;17.344;2024-02-23T03:40:07;2.35;;;1.40;;
13477;SDS011;12598;62.382;17.344;2024-02-23T03:41:11;2.75;;;1.90;;
13477;SDS011;12598;62.382;17.344;2024-02-23T03:42:13;2.40;;;1.85;;
13477;SDS011;12598;62.382;17.344;2024-02-23T03:43:15;2.38;;;1.83;;
13477;SDS011;12598;62.382;17.344;2024-02-23T03:44:17;2.30;;;1.70;;
13477;SDS011;12598;62.382;17.344;2024-02-23T03:45:19;3.10;;;2.30;;
13477;SDS011;12598;62.382;17.344;2024-02-23T03:46:20;1.98;;;1.65;;
13477;SDS011;12598;62.382;17.344;2024-02-23T03:47:23;2.08;;;1.45;;
13477;SDS011;12598;62.382;17.344;2024-02-23T03:48:25;1.90;;;1.48;;
13477;SDS011;12598;62.382;17.344;2024-02-23T03:49:27;2.10;;;1.60;;
13477;SDS011;12598;62.382;17.344;2024-02-23T03:50:29;2.45;;;1.45;;
13477;SDS011;12598;62.382;17.344;2024-02-23T03:51:31;2.15;;;1.40;;
13477;SDS011;12598;62.382;17.344;2024-02-23T03:52:35;2.30;;;1.42;;
13477;SDS011;12598;62.382;17.344;2024-02-23T03:53:37;1.90;;;1.45;;
13477;SDS011;12598;62.382;17.344;2024-02-23T03:54:39;1.50;;;1.40;;
13477;SDS011;12598;62.382;17.344;2024-02-23T03:55:41;3.20;;;1.60;;
13477;SDS011;12598;62.382;17.344;2024-02-23T03:56:42;2.10;;;1.90;;
13477;SDS011;12598;62.382;17.344;2024-02-23T03:57:44;1.23;;;1.13;;
13477;SDS011;12598;62.382;17.344;2024-02-23T03:58:48;1.67;;;1.30;;
13477;SDS011;12598;62.382;17.344;2024-02-23T03:59:53;1.90;;;1.50;;
13477;SDS011;12598;62.382;17.344;2024-02-23T04:00:56;2.30;;;1.58;;
13477;SDS011;12598;62.382;17.344;2024-02-23T04:01:58;2.20;;;1.63;;
13477;SDS011;12598;62.382;17.344;2024-02-23T04:03:00;1.92;;;1.42;;
13477;SDS011;12598;62.382;17.344;2024-02-23T04:04:02;1.48;;;1.38;;
13477;SDS011;12598;62.382;17.344;2024-02-23T04:05:05;1.55;;;1.25;;
13477;SDS011;12598;62.382;17.344;2024-02-23T04:06:07;1.63;;;1.20;;
13477;SDS011;12598;62.382;17.344;2024-02-23T04:07:10;2.10;;;1.50;;
13477;SDS011;12598;62.382;17.344;2024-02-23T04:08:12;1.20;;;1.10;;
13477;SDS011;12598;62.382;17.344;2024-02-23T04:09:13;1.63;;;1.20;;
13477;SDS011;12598;62.382;17.344;2024-02-23T04:10:15;2.92;;;1.15;;
13477;SDS011;12598;62.382;17.344;2024-02-23T04:11:17;1.67;;;1.40;;
13477;SDS011;12598;62.382;17.344;2024-02-23T04:12:20;1.92;;;1.30;;
13477;SDS011;12598;62.382;17.344;2024-02-23T04:13:23;1.40;;;1.30;;
13477;SDS011;12598;62.382;17.344;2024-02-23T04:14:25;1.30;;;1.20;;
13477;SDS011;12598;62.382;17.344;2024-02-23T04:15:27;1.83;;;1.25;;
13477;SDS011;12598;62.382;17.344;2024-02-23T04:16:29;2.13;;;1.40;;
13477;SDS011;12598;62.382;17.344;2024-02-23T04:17:31;2.60;;;1.42;;
13477;SDS011;12598;62.382;17.344;2024-02-23T04:18:33;1.63;;;1.30;;
13477;SDS011;12598;62.382;17.344;2024-02-23T04:19:35;2.08;;;1.55;;
13477;SDS011;12598;62.382;17.344;2024-02-23T04:20:37;1.60;;;1.40;;
13477;SDS011;12598;62.382;17.344;2024-02-23T04:21:39;3.28;;;1.65;;
13477;SDS011;12598;62.382;17.344;2024-02-23T04:22:41;2.35;;;1.40;;
13477;SDS011;12598;62.382;17.344;2024-02-23T04:23:43;1.98;;;1.40;;
13477;SDS011;12598;62.382;17.344;2024-02-23T04:24:44;2.03;;;1.67;;
13477;SDS011;12598;62.382;17.344;2024-02-23T04:25:46;1.80;;;1.60;;
13477;SDS011;12598;62.382;17.344;2024-02-23T04:26:48;1.80;;;1.50;;
13477;SDS011;12598;62.382;17.344;2024-02-23T04:27:50;1.80;;;1.70;;
13477;SDS011;12598;62.382;17.344;2024-02-23T04:28:52;1.92;;;1.70;;
13477;SDS011;12598;62.382;17.344;2024-02-23T04:29:53;2.15;;;1.80;;
13477;SDS011;12598;62.382;17.344;2024-02-23T04:30:55;1.85;;;1.63;;
13477;SDS011;12598;62.382;17.344;2024-02-23T04:32:00;1.90;;;1.67;;
13477;SDS011;12598;62.382;17.344;2024-02-23T04:33:03;3.15;;;1.70;;
13477;SDS011;12598;62.382;17.344;2024-02-23T04:34:05;1.95;;;1.60;;
13477;SDS011;12598;62.382;17.344;2024-02-23T04:35:07;1.98;;;1.77;;
13477;SDS011;12598;62.382;17.344;2024-02-23T04:36:09;2.38;;;1.92;;
13477;SDS011;12598;62.382;17.344;2024-02-23T04:37:11;2.30;;;2.10;;
13477;SDS011;12598;62.382;17.344;2024-02-23T04:38:13;2.03;;;1.83;;
13477;SDS011;12598;62.382;17.344;2024-02-23T04:39:15;2.70;;;2.10;;
13477;SDS011;12598;62.382;17.344;2024-02-23T04:40:16;2.70;;;2.20;;
13477;SDS011;12598;62.382;17.344;2024-02-23T04:41:21;2.85;;;2.38;;
13477;SDS011;12598;62.382;17.344;2024-02-23T04:42:26;2.97;;;2.15;;
13477;SDS011;12598;62.382;17.344;2024-02-23T04:43:29;2.78;;;2.38;;
13477;SDS011;12598;62.382;17.344;2024-02-23T04:44:30;3.28;;;2.50;;
13477;SDS011;12598;62.382;17.344;2024-02-23T04:45:32;3.38;;;2.55;;
13477;SDS011;12598;62.382;17.344;2024-02-23T04:46:34;3.40;;;2.65;;
13477;SDS011;12598;62.382;17.344;2024-02-23T04:47:36;3.33;;;2.88;;
13477;SDS011;12598;62.382;17.344;2024-02-23T04:48:38;3.40;;;2.60;;
13477;SDS011;12598;62.382;17.344;2024-02-23T04:49:39;2.83;;;2.63;;
13477;SDS011;12598;62.382;17.344;2024-02-23T04:50:41;4.03;;;2.97;;
13477;SDS011;12598;62.382;17.344;2024-02-23T04:51:43;2.95;;;2.65;;
13477;SDS011;12598;62.382;17.344;2024-02-23T04:52:45;3.58;;;2.67;;
13477;SDS011;12598;62.382;17.344;2024-02-23T04:53:47;3.20;;;2.75;;
13477;SDS011;12598;62.382;17.344;2024-02-23T04:54:49;3.72;;;2.80;;
13477;SDS011;12598;62.382;17.344;2024-02-23T04:55:50;3.25;;;2.83;;
13477;SDS011;12598;62.382;17.344;2024-02-23T04:56:52;3.33;;;2.83;;
13477;SDS011;12598;62.382;17.344;2024-02-23T04:57:54;3.55;;;3.22;;
13477;SDS011;12598;62.382;17.344;2024-02-23T04:58:57;3.85;;;2.90;;
13477;SDS011;12598;62.382;17.344;2024-02-23T04:59:59;3.92;;;3.40;;
13477;SDS011;12598;62.382;17.344;2024-02-23T05:01:00;3.60;;;3.30;;
13477;SDS011;12598;62.382;17.344;2024-02-23T05:02:03;3.15;;;2.47;;
13477;SDS011;12598;62.382;17.344;2024-02-23T05:03:05;3.22;;;2.92;;
13477;SDS011;12598;62.382;17.344;2024-02-23T05:04:11;3.20;;;2.90;;
13477;SDS011;12598;62.382;17.344;2024-02-23T05:05:13;3.47;;;3.17;;
13477;SDS011;12598;62.382;17.344;2024-02-23T05:06:15;4.25;;;3.25;;
13477;SDS011;12598;62.382;17.344;2024-02-23T05:07:17;3.40;;;3.10;;
13477;SDS011;12598;62.382;17.344;2024-02-23T05:08:19;3.80;;;2.83;;
13477;SDS011;12598;62.382;17.344;2024-02-23T05:09:21;3.60;;;3.00;;
13477;SDS011;12598;62.382;17.344;2024-02-23T05:10:23;3.70;;;2.63;;
13477;SDS011;12598;62.382;17.344;2024-02-23T05:11:25;3.42;;;3.00;;
13477;SDS011;12598;62.382;17.344;2024-02-23T05:12:27;3.75;;;2.42;;
13477;SDS011;12598;62.382;17.344;2024-02-23T05:13:29;3.38;;;2.78;;
13477;SDS011;12598;62.382;17.344;2024-02-23T05:14:31;3.35;;;2.78;;
13477;SDS011;12598;62.382;17.344;2024-02-23T05:15:32;3.67;;;2.70;;
13477;SDS011;12598;62.382;17.344;2024-02-23T05:16:34;3.70;;;2.75;;
13477;SDS011;12598;62.382;17.344;2024-02-23T05:17:36;4.50;;;2.55;;
13477;SDS011;12598;62.382;17.344;2024-02-23T05:18:38;3.15;;;2.72;;
13477;SDS011;12598;62.382;17.344;2024-02-23T05:19:40;2.63;;;2.42;;
13477;SDS011;12598;62.382;17.344;2024-02-23T05:20:42;3.33;;;2.63;;
13477;SDS011;12598;62.382;17.344;2024-02-23T05:21:44;3.25;;;2.90;;
13477;SDS011;12598;62.382;17.344;2024-02-23T05:22:46;3.50;;;2.28;;
13477;SDS011;12598;62.382;17.344;2024-02-23T05:23:48;3.55;;;2.22;;
13477;SDS011;12598;62.382;17.344;2024-02-23T05:24:50;3.15;;;2.30;;
13477;SDS011;12598;62.382;17.344;2024-02-23T05:25:52;3.03;;;2.50;;
13477;SDS011;12598;62.382;17.344;2024-02-23T05:26:54;2.70;;;2.30;;
13477;SDS011;12598;62.382;17.344;2024-02-23T05:27:55;2.88;;;2.10;;
13477;SDS011;12598;62.382;17.344;2024-02-23T05:28:57;2.40;;;2.17;;
13477;SDS011;12598;62.382;17.344;2024-02-23T05:29:59;2.75;;;2.10;;
13477;SDS011;12598;62.382;17.344;2024-02-23T05:31:04;2.40;;;2.20;;
13477;SDS011;12598;62.382;17.344;2024-02-23T05:32:06;2.83;;;2.10;;
13477;SDS011;12598;62.382;17.344;2024-02-23T05:33:08;2.92;;;2.17;;
13477;SDS011;12598;62.382;17.344;2024-02-23T05:34:10;2.60;;;2.17;;
13477;SDS011;12598;62.382;17.344;2024-02-23T05:35:12;2.45;;;2.25;;
13477;SDS011;12598;62.382;17.344;2024-02-23T05:36:14;3.03;;;2.20;;
13477;SDS011;12598;62.382;17.344;2024-02-23T05:37:17;4.22;;;2.50;;
13477;SDS011;12598;62.382;17.344;2024-02-23T05:38:19;2.45;;;2.10;;
13477;SDS011;12598;62.382;17.344;2024-02-23T05:39:21;3.08;;;2.20;;
13477;SDS011;12598;62.382;17.344;2024-02-23T05:40:23;3.40;;;2.42;;
13477;SDS011;12598;62.382;17.344;2024-02-23T05:41:25;3.50;;;2.60;;
13477;SDS011;12598;62.382;17.344;2024-02-23T05:42:27;3.20;;;2.35;;
13477;SDS011;12598;62.382;17.344;2024-02-23T05:43:28;4.20;;;2.63;;
13477;SDS011;12598;62.382;17.344;2024-02-23T05:44:30;3.85;;;2.50;;
13477;SDS011;12598;62.382;17.344;2024-02-23T05:45:32;2.80;;;2.35;;
13477;SDS011;12598;62.382;17.344;2024-02-23T05:46:34;3.78;;;2.30;;
13477;SDS011;12598;62.382;17.344;2024-02-23T05:47:38;2.75;;;2.08;;
13477;SDS011;12598;62.382;17.344;2024-02-23T05:48:43;3.15;;;2.40;;
13477;SDS011;12598;62.382;17.344;2024-02-23T05:49:45;2.55;;;2.35;;
13477;SDS011;12598;62.382;17.344;2024-02-23T05:50:47;3.08;;;2.15;;
13477;SDS011;12598;62.382;17.344;2024-02-23T05:51:48;3.03;;;2.20;;
13477;SDS011;12598;62.382;17.344;2024-02-23T05:52:50;2.67;;;2.35;;
13477;SDS011;12598;62.382;17.344;2024-02-23T05:53:54;2.65;;;2.28;;
13477;SDS011;12598;62.382;17.344;2024-02-23T05:54:56;3.00;;;2.20;;
13477;SDS011;12598;62.382;17.344;2024-02-23T05:55:58;2.45;;;2.03;;
13477;SDS011;12598;62.382;17.344;2024-02-23T05:57:00;3.38;;;2.20;;
13477;SDS011;12598;62.382;17.344;2024-02-23T05:58:02;2.50;;;1.88;;
13477;SDS011;12598;62.382;17.344;2024-02-23T05:59:05;2.83;;;2.08;;
13477;SDS011;12598;62.382;17.344;2024-02-23T06:00:08;2.45;;;2.22;;
13477;SDS011;12598;62.382;17.344;2024-02-23T06:01:13;2.88;;;2.10;;
13477;SDS011;12598;62.382;17.344;2024-02-23T06:02:14;3.38;;;2.22;;
13477;SDS011;12598;62.382;17.344;2024-02-23T06:03:16;2.38;;;1.90;;
13477;SDS011;12598;62.382;17.344;2024-02-23T06:04:19;3.38;;;2.15;;
13477;SDS011;12598;62.382;17.344;2024-02-23T06:05:21;2.47;;;2.05;;
13477;SDS011;12598;62.382;17.344;2024-02-23T06:06:25;2.30;;;2.10;;
13477;SDS011;12598;62.382;17.344;2024-02-23T06:07:27;2.50;;;2.30;;
13477;SDS011;12598;62.382;17.344;2024-02-23T06:08:30;2.92;;;1.85;;
13477;SDS011;12598;62.382;17.344;2024-02-23T06:09:32;2.25;;;2.05;;